Time;durP1;ratioP1;P1;durP2;ratioP2;P2;SDS_P1;SDS_P2;PMS_P1;PMS_P2;Temp;Humidity;BMP_temperature;BMP_pressure;BME280_temperature;BME280_humidity;BME280_pressure;Samples;Min_cycle;Max_cycle;Signal;HPM_P1;HPM_P2
2022/01/08 00:02:23;;;;;;;30.67;17.30;;;1.20;99.90;;;;;;5065563;28;20044;-70
2022/01/08 00:04:49;;;;;;;31.45;18.55;;;1.20;99.90;;;;;;5068068;28;20055;-70
2022/01/08 00:07:15;;;;;;;28.27;19.40;;;1.30;99.90;;;;;;5068364;28;20063;-70
2022/01/08 00:09:40;;;;;;;39.05;19.35;;;1.40;99.90;;;;;;5063751;28;20044;-70
2022/01/08 00:12:06;;;;;;;29.67;18.50;;;1.50;99.90;;;;;;5065388;28;20047;-70
2022/01/08 00:14:32;;;;;;;28.17;18.08;;;1.50;99.90;;;;;;5066878;28;20149;-70
2022/01/08 00:16:58;;;;;;;37.45;19.77;;;1.50;99.90;;;;;;5068851;28;20064;-70
2022/01/08 00:19:24;;;;;;;32.60;19.58;;;1.60;99.90;;;;;;5066086;28;20425;-70
2022/01/08 00:21:50;;;;;;;34.00;17.92;;;1.60;99.90;;;;;;5067812;28;20041;-70
2022/01/08 00:24:15;;;;;;;22.95;16.45;;;1.50;99.90;;;;;;5059730;28;20052;-70
2022/01/08 00:26:41;;;;;;;26.05;15.55;;;1.40;99.90;;;;;;5066186;28;20501;-70
2022/01/08 00:29:07;;;;;;;31.65;17.85;;;1.40;99.90;;;;;;5061221;28;20119;-70
2022/01/08 00:31:33;;;;;;;31.77;18.60;;;1.30;99.90;;;;;;5066486;28;20041;-70
2022/01/08 00:33:59;;;;;;;25.83;16.17;;;1.30;99.90;;;;;;5066344;28;20048;-70
2022/01/08 00:36:24;;;;;;;26.65;16.95;;;1.30;99.90;;;;;;5067010;28;20417;-70
2022/01/08 00:38:50;;;;;;;26.27;17.63;;;1.20;99.90;;;;;;5074121;28;20050;-70
2022/01/08 00:41:16;;;;;;;24.55;18.45;;;1.20;99.90;;;;;;5066279;28;20567;-70
2022/01/08 00:43:41;;;;;;;28.17;17.25;;;1.10;99.90;;;;;;5059111;28;20048;-70
2022/01/08 00:46:07;;;;;;;24.02;15.73;;;1.10;99.90;;;;;;5059570;28;20048;-70
2022/01/08 00:48:33;;;;;;;24.73;16.27;;;1.00;99.90;;;;;;5063648;28;20044;-69
2022/01/08 00:50:58;;;;;;;21.95;16.10;;;1.00;99.90;;;;;;5066551;28;20125;-70
2022/01/08 00:53:24;;;;;;;23.10;15.60;;;1.00;99.90;;;;;;5065750;28;20067;-70
2022/01/08 00:55:50;;;;;;;34.25;16.48;;;1.00;99.90;;;;;;5076547;28;20126;-70
2022/01/08 00:58:16;;;;;;;29.42;17.25;;;1.10;99.90;;;;;;5064752;28;20040;-70
2022/01/08 01:00:41;;;;;;;25.45;16.10;;;1.10;99.90;;;;;;5066109;28;20049;-70
2022/01/08 01:03:08;;;;;;;25.17;15.30;;;1.20;99.90;;;;;;5061368;28;20043;-70
2022/01/08 01:05:34;;;;;;;23.63;14.40;;;1.30;99.90;;;;;;5067786;28;20056;-70
2022/01/08 01:08:00;;;;;;;19.45;14.82;;;1.30;99.90;;;;;;5067073;28;20156;-70
2022/01/08 01:10:26;;;;;;;24.67;13.27;;;1.30;99.90;;;;;;5065313;28;20572;-70
2022/01/08 01:12:51;;;;;;;23.60;14.02;;;1.20;99.90;;;;;;5067648;28;20074;-70
2022/01/08 01:15:18;;;;;;;18.88;13.05;;;1.20;99.90;;;;;;5065503;28;20410;-70
2022/01/08 01:17:46;;;;;;;21.20;12.32;;;1.10;99.90;;;;;;5067883;28;20074;-70
2022/01/08 01:20:15;;;;;;;18.23;12.68;;;1.10;99.90;;;;;;5066597;28;20041;-70
2022/01/08 01:23:02;;;;;;;21.30;12.98;;;1.10;99.90;;;;;;5065933;28;20059;-70
2022/01/08 01:25:35;;;;;;;16.85;12.25;;;1.10;99.90;;;;;;5055876;28;20131;-70
2022/01/08 01:41:48;;;;;;;24.95;15.27;;;0.90;99.90;;;;;;5069781;28;20098;-70
2022/01/08 01:47:03;;;;;;;34.33;18.98;;;1.00;99.90;;;;;;5089428;28;20076;-70
2022/01/08 01:49:35;;;;;;;32.85;19.85;;;1.10;99.90;;;;;;5070845;28;20170;-70
2022/01/08 01:52:03;;;;;;;32.72;19.88;;;1.10;99.90;;;;;;5070709;28;20041;-70
2022/01/08 01:54:30;;;;;;;31.98;21.73;;;1.10;99.90;;;;;;5066906;28;20102;-70
2022/01/08 01:56:58;;;;;;;30.17;19.75;;;1.10;99.90;;;;;;5071781;28;20037;-70
2022/01/08 01:59:25;;;;;;;42.53;20.85;;;1.10;99.90;;;;;;5070453;28;20052;-70
2022/01/08 02:01:52;;;;;;;30.40;19.70;;;1.00;99.90;;;;;;5068384;28;20052;-70
2022/01/08 02:04:18;;;;;;;33.53;20.35;;;1.00;99.90;;;;;;5074271;28;20624;-70
2022/01/08 02:06:43;;;;;;;29.38;21.38;;;0.90;99.90;;;;;;5081132;28;20056;-69
2022/01/08 02:09:09;;;;;;;45.83;22.50;;;0.90;99.90;;;;;;5084357;28;20036;-69
2022/01/08 02:11:54;;;;;;;42.17;24.40;;;0.80;99.90;;;;;;5067006;28;20604;-70
2022/01/08 02:14:20;;;;;;;39.35;23.13;;;0.90;99.90;;;;;;5070572;28;20119;-70
2022/01/08 02:16:46;;;;;;;38.60;24.63;;;0.90;99.90;;;;;;5069614;28;20566;-69
2022/01/08 02:19:12;;;;;;;45.92;25.70;;;0.90;99.90;;;;;;5068382;28;20090;-69
2022/01/08 02:21:37;;;;;;;45.35;26.77;;;1.00;99.90;;;;;;5070498;28;20043;-69
2022/01/08 02:24:03;;;;;;;71.68;27.05;;;1.00;99.90;;;;;;5069723;28;20040;-69
2022/01/08 02:26:29;;;;;;;43.97;28.52;;;1.10;99.90;;;;;;5065340;28;20441;-69
2022/01/08 02:28:54;;;;;;;43.17;27.30;;;1.10;99.90;;;;;;5069367;28;20041;-69
2022/01/08 02:31:24;;;;;;;43.05;28.70;;;1.20;99.90;;;;;;5065477;28;20064;-70
2022/01/08 02:33:50;;;;;;;44.42;26.48;;;1.20;99.90;;;;;;5068678;28;20072;-69
2022/01/08 02:36:16;;;;;;;50.92;27.23;;;1.20;99.90;;;;;;5067136;28;20536;-69
2022/01/08 02:38:42;;;;;;;39.10;24.98;;;1.20;99.90;;;;;;5057590;28;20053;-69
2022/01/08 02:41:08;;;;;;;37.40;26.10;;;1.10;99.90;;;;;;5051305;28;20429;-69
2022/01/08 02:43:40;;;;;;;40.63;24.98;;;1.10;99.90;;;;;;5066017;28;20053;-69
2022/01/08 02:46:06;;;;;;;53.75;26.98;;;1.00;99.90;;;;;;5055139;28;20053;-69
2022/01/08 02:48:32;;;;;;;40.38;26.33;;;1.00;99.90;;;;;;5063761;28;20051;-69
2022/01/08 02:50:57;;;;;;;39.20;25.58;;;1.00;99.90;;;;;;5067290;28;20184;-69
2022/01/08 02:53:23;;;;;;;49.17;25.90;;;0.90;99.90;;;;;;5069200;28;20040;-69
2022/01/08 02:55:49;;;;;;;38.83;24.77;;;0.90;99.90;;;;;;5059268;28;20075;-69
2022/01/08 02:58:15;;;;;;;40.70;25.35;;;0.80;99.90;;;;;;5052872;28;20045;-69
2022/01/08 03:00:41;;;;;;;40.35;23.20;;;0.80;99.90;;;;;;5057878;28;20516;-69
2022/01/08 03:03:06;;;;;;;42.15;25.77;;;0.70;99.90;;;;;;5069122;28;20147;-69
2022/01/08 03:05:32;;;;;;;43.92;24.02;;;0.70;99.90;;;;;;5068983;28;20056;-69
2022/01/08 03:07:58;;;;;;;41.20;24.13;;;0.70;99.90;;;;;;5068405;28;20060;-69
2022/01/08 03:10:24;;;;;;;34.35;23.75;;;0.70;99.90;;;;;;5069027;28;20051;-69
2022/01/08 03:12:49;;;;;;;37.38;24.15;;;0.60;99.90;;;;;;5068418;28;20476;-69
2022/01/08 03:15:18;;;;;;;38.30;25.05;;;0.60;99.90;;;;;;5070571;28;20056;-69
2022/01/08 03:17:45;;;;;;;46.35;26.05;;;0.60;99.90;;;;;;5058126;28;20457;-69
2022/01/08 03:20:13;;;;;;;34.88;24.02;;;0.60;99.90;;;;;;5068431;28;20044;-69
2022/01/08 03:22:41;;;;;;;42.00;24.58;;;0.60;99.90;;;;;;5061491;28;20442;-69
2022/01/08 03:25:09;;;;;;;45.72;26.33;;;0.60;99.90;;;;;;5064832;28;20564;-69
2022/01/08 03:27:35;;;;;;;41.95;23.98;;;0.60;99.90;;;;;;5070272;28;20045;-69
2022/01/08 03:30:03;;;;;;;36.80;24.25;;;0.60;99.90;;;;;;5067685;28;20083;-69
2022/01/08 03:32:28;;;;;;;33.37;22.30;;;0.60;99.90;;;;;;5067821;28;20048;-69
2022/01/08 03:34:54;;;;;;;41.58;24.33;;;0.60;99.90;;;;;;5067878;28;20050;-69
2022/01/08 03:37:20;;;;;;;38.67;24.40;;;0.50;99.90;;;;;;5067680;28;20044;-69
2022/01/08 03:39:45;;;;;;;41.00;23.35;;;0.50;99.90;;;;;;5062374;28;20040;-69
2022/01/08 03:42:11;;;;;;;34.47;22.98;;;0.50;99.90;;;;;;5066949;28;20049;-68
2022/01/08 03:44:37;;;;;;;39.15;24.58;;;0.50;99.90;;;;;;5069071;28;20523;-69
2022/01/08 03:47:29;;;;;;;41.03;25.00;;;0.40;99.90;;;;;;5067321;28;20044;-69
2022/01/08 03:49:56;;;;;;;38.08;24.02;;;0.50;99.90;;;;;;5066576;28;20117;-68
2022/01/08 03:52:22;;;;;;;49.65;24.88;;;0.40;99.90;;;;;;5063757;28;20041;-69
2022/01/08 03:54:48;;;;;;;39.95;24.48;;;0.40;99.90;;;;;;5065095;28;20055;-69
2022/01/08 03:57:14;;;;;;;42.58;25.67;;;0.40;99.90;;;;;;5068869;28;20120;-69
2022/01/08 03:59:39;;;;;;;53.55;28.50;;;0.40;99.90;;;;;;5066927;28;20094;-69
2022/01/08 04:02:05;;;;;;;42.05;25.77;;;0.40;99.90;;;;;;5051025;28;20149;-69
2022/01/08 04:04:31;;;;;;;38.70;23.73;;;0.40;99.90;;;;;;5068174;28;20071;-69
2022/01/08 04:06:57;;;;;;;40.08;24.77;;;0.40;99.90;;;;;;5069376;28;20052;-69
2022/01/08 04:09:23;;;;;;;41.22;23.77;;;0.40;99.90;;;;;;5068995;28;20044;-69
2022/01/08 04:11:49;;;;;;;43.33;23.15;;;0.40;99.90;;;;;;5069199;28;20131;-69
2022/01/08 04:14:16;;;;;;;41.50;24.08;;;0.30;99.90;;;;;;5063551;28;20045;-69
2022/01/08 04:16:46;;;;;;;32.40;21.60;;;0.30;99.90;;;;;;5068871;28;20123;-68
2022/01/08 04:19:12;;;;;;;39.63;21.45;;;0.30;99.90;;;;;;5065987;28;20501;-69
2022/01/08 04:21:59;;;;;;;45.65;24.08;;;0.30;99.90;;;;;;5069991;28;20132;-69
2022/01/08 04:24:24;;;;;;;37.92;22.60;;;0.30;99.90;;;;;;5065111;28;20056;-69
2022/01/08 04:26:50;;;;;;;35.85;21.20;;;0.20;99.90;;;;;;5067966;28;20520;-68
2022/01/08 04:29:16;;;;;;;38.63;22.58;;;0.30;99.90;;;;;;5067675;28;20033;-67
2022/01/08 04:31:41;;;;;;;32.35;20.92;;;0.20;99.90;;;;;;5067836;28;20072;-68
2022/01/08 04:34:08;;;;;;;36.33;21.15;;;0.30;99.90;;;;;;5066509;28;20055;-68
2022/01/08 04:36:34;;;;;;;34.88;20.80;;;0.20;99.90;;;;;;5064642;28;20048;-68
2022/01/08 04:38:59;;;;;;;30.95;20.25;;;0.20;99.90;;;;;;5068390;28;20064;-68
2022/01/08 04:41:25;;;;;;;34.75;21.42;;;0.20;99.90;;;;;;5067729;28;20137;-68
2022/01/08 04:43:51;;;;;;;35.30;19.50;;;0.30;99.90;;;;;;5068452;28;20086;-68
2022/01/08 04:46:16;;;;;;;31.88;18.17;;;0.30;99.90;;;;;;5067013;28;20761;-68
2022/01/08 04:48:42;;;;;;;27.30;17.35;;;0.30;99.90;;;;;;5061691;28;20051;-68
2022/01/08 04:51:08;;;;;;;31.40;19.58;;;0.30;99.90;;;;;;5068389;28;20056;-68
2022/01/08 04:53:34;;;;;;;30.95;18.60;;;0.30;99.90;;;;;;5067082;28;20055;-68
2022/01/08 04:55:59;;;;;;;27.85;18.08;;;0.30;99.90;;;;;;5066614;28;20044;-68
2022/01/08 04:58:25;;;;;;;29.15;17.38;;;0.30;99.90;;;;;;5066361;28;20397;-68
2022/01/08 05:00:51;;;;;;;33.33;18.48;;;0.20;99.90;;;;;;5056032;28;20033;-68
2022/01/08 05:03:17;;;;;;;32.40;17.55;;;0.20;99.90;;;;;;5065304;28;20072;-68
2022/01/08 05:05:42;;;;;;;31.55;17.70;;;0.20;99.90;;;;;;5062850;28;20045;-69
2022/01/08 05:08:08;;;;;;;31.05;18.75;;;0.20;99.90;;;;;;5066833;28;20036;-68
2022/01/08 05:10:34;;;;;;;34.90;20.17;;;0.20;99.90;;;;;;5068181;28;20110;-68
2022/01/08 05:13:05;;;;;;;35.65;19.45;;;0.20;99.90;;;;;;5067884;28;20052;-68
2022/01/08 05:15:34;;;;;;;44.88;21.90;;;0.20;99.90;;;;;;5064003;28;20063;-68
2022/01/08 05:18:00;;;;;;;37.15;20.83;;;0.20;99.90;;;;;;5066190;28;20752;-68
2022/01/08 05:20:31;;;;;;;33.72;20.52;;;0.20;99.90;;;;;;5064739;28;20055;-68
2022/01/08 05:23:00;;;;;;;37.95;23.40;;;0.20;99.90;;;;;;5059540;28;20059;-68
2022/01/08 05:25:27;;;;;;;37.78;21.50;;;0.10;99.90;;;;;;5065730;28;20044;-68
2022/01/08 05:27:53;;;;;;;38.28;22.55;;;0.20;99.90;;;;;;5070790;28;20055;-68
2022/01/08 05:30:21;;;;;;;41.20;22.15;;;0.10;99.90;;;;;;5067739;28;20036;-69
2022/01/08 05:32:47;;;;;;;41.55;23.85;;;0.20;99.90;;;;;;5067050;28;20047;-68
2022/01/08 05:35:12;;;;;;;40.53;22.88;;;0.10;99.90;;;;;;5067717;28;20048;-70
2022/01/08 05:37:40;;;;;;;37.08;23.00;;;0.10;99.90;;;;;;5066531;28;20055;-69
2022/01/08 05:40:06;;;;;;;49.50;26.02;;;0.10;99.90;;;;;;5065590;28;20558;-70
2022/01/08 05:42:32;;;;;;;40.83;24.63;;;0.10;99.90;;;;;;5064657;28;20114;-70
2022/01/08 05:44:57;;;;;;;39.97;23.80;;;0.10;99.90;;;;;;5083700;28;20644;-70
2022/01/08 05:47:27;;;;;;;38.35;24.30;;;0.10;99.90;;;;;;5067998;28;20048;-70
2022/01/08 05:49:52;;;;;;;41.80;26.65;;;0.10;99.90;;;;;;5067167;28;20052;-70
2022/01/08 05:52:18;;;;;;;52.28;26.38;;;0.10;99.90;;;;;;5066338;28;20045;-70
2022/01/08 05:54:44;;;;;;;48.38;26.67;;;0.10;99.90;;;;;;5058079;28;20077;-70
2022/01/08 05:57:09;;;;;;;42.97;25.00;;;0.10;99.90;;;;;;5066574;28;20033;-70
2022/01/08 05:59:35;;;;;;;43.83;26.35;;;0.10;99.90;;;;;;5063171;28;20037;-70
2022/01/08 06:02:01;;;;;;;44.17;25.55;;;0.10;99.90;;;;;;5064787;28;20048;-70
2022/01/08 06:04:26;;;;;;;46.17;24.88;;;0.00;99.90;;;;;;5065651;28;20061;-69
2022/01/08 06:06:52;;;;;;;47.92;26.70;;;0.00;99.90;;;;;;5067126;28;20182;-70
2022/01/08 06:09:18;;;;;;;44.78;25.52;;;0.00;99.90;;;;;;5066556;28;20494;-70
2022/01/08 06:11:44;;;;;;;41.58;23.73;;;0.00;99.90;;;;;;5065552;28;20119;-70
2022/01/08 06:14:10;;;;;;;50.25;26.85;;;0.00;99.90;;;;;;5060406;28;20049;-70
2022/01/08 06:16:37;;;;;;;37.13;23.63;;;0.00;99.90;;;;;;5066443;28;20044;-70
2022/01/08 06:19:10;;;;;;;44.80;25.83;;;0.00;99.90;;;;;;5065849;28;20048;-70
2022/01/08 06:21:36;;;;;;;46.25;24.95;;;0.00;99.90;;;;;;5069483;28;20830;-70
2022/01/08 06:24:03;;;;;;;41.20;23.27;;;0.00;99.90;;;;;;5069449;28;20072;-70
2022/01/08 06:26:29;;;;;;;43.17;24.95;;;0.00;99.90;;;;;;5069484;28;20135;-69
2022/01/08 06:28:54;;;;;;;48.08;23.83;;;0.00;99.90;;;;;;5069685;28;20152;-70
2022/01/08 06:31:23;;;;;;;40.72;21.65;;;0.00;99.90;;;;;;5069437;28;20125;-70
2022/01/08 06:33:49;;;;;;;;;;;-0.10;99.90;;;;;;5080426;28;20044;-70
2022/01/08 06:36:17;;;;;;;40.47;23.90;;;-0.10;99.90;;;;;;5057686;28;19928;-70
2022/01/08 06:38:43;;;;;;;47.28;22.50;;;-0.10;99.90;;;;;;5078145;28;20126;-70
2022/01/08 06:41:09;;;;;;;48.17;25.23;;;-0.10;99.90;;;;;;5079312;28;20478;-69
2022/01/08 06:43:35;;;;;;;40.55;21.95;;;-0.10;99.90;;;;;;5069089;28;20053;-70
2022/01/08 06:46:01;;;;;;;40.30;22.40;;;-0.10;99.90;;;;;;5070105;28;20100;-70
2022/01/08 06:48:26;;;;;;;35.40;22.35;;;-0.10;99.90;;;;;;5068420;28;20040;-69
2022/01/08 06:50:52;;;;;;;34.97;20.55;;;-0.10;99.90;;;;;;5069110;28;20551;-70
2022/01/08 06:53:18;;;;;;;42.38;21.48;;;-0.10;99.90;;;;;;5064192;28;20072;-70
2022/01/08 06:55:44;;;;;;;42.92;21.17;;;-0.10;99.90;;;;;;5069929;28;20048;-70
2022/01/08 06:58:09;;;;;;;38.78;21.10;;;-0.10;99.90;;;;;;5068859;28;20072;-70
2022/01/08 07:00:35;;;;;;;37.67;21.45;;;-0.10;99.90;;;;;;5067943;28;20052;-70
2022/01/08 07:03:01;;;;;;;40.97;22.00;;;-0.10;99.90;;;;;;5070758;28;20044;-70
2022/01/08 07:05:27;;;;;;;37.33;22.48;;;-0.10;99.90;;;;;;5051444;28;20124;-70
2022/01/08 07:07:53;;;;;;;40.72;22.67;;;-0.20;99.90;;;;;;5068431;28;20139;-70
2022/01/08 07:10:19;;;;;;;42.22;22.75;;;-0.20;99.90;;;;;;5069650;28;20902;-70
2022/01/08 07:12:45;;;;;;;35.85;21.15;;;-0.20;99.90;;;;;;5068377;28;20543;-70
2022/01/08 07:15:12;;;;;;;36.15;20.08;;;-0.20;99.90;;;;;;5066373;28;20115;-70
2022/01/08 07:17:39;;;;;;;45.47;22.77;;;-0.20;99.90;;;;;;5070097;28;20056;-70
2022/01/08 07:20:05;;;;;;;36.88;22.35;;;-0.30;99.90;;;;;;5066157;28;20048;-70
2022/01/08 07:22:31;;;;;;;47.28;22.52;;;-0.30;99.90;;;;;;5066222;28;20072;-70
2022/01/08 07:24:56;;;;;;;41.38;22.45;;;-0.30;99.90;;;;;;5068353;28;20072;-70
2022/01/08 07:27:22;;;;;;;42.53;23.48;;;-0.20;99.90;;;;;;5060952;28;20048;-70
2022/01/08 07:29:48;;;;;;;42.58;22.83;;;-0.20;99.90;;;;;;5068284;28;20056;-71
2022/01/08 07:32:14;;;;;;;48.92;21.05;;;-0.20;99.90;;;;;;5068287;28;20044;-71
2022/01/08 07:34:40;;;;;;;39.50;22.73;;;-0.20;99.90;;;;;;5066840;28;20038;-71
2022/01/08 07:37:05;;;;;;;37.45;23.05;;;-0.20;99.90;;;;;;5066324;28;20397;-71
2022/01/08 07:39:31;;;;;;;44.15;22.45;;;-0.20;99.90;;;;;;5084360;28;20098;-71
2022/01/08 07:41:57;;;;;;;41.20;22.88;;;-0.20;99.90;;;;;;5071391;28;20044;-71
2022/01/08 07:44:22;;;;;;;37.50;21.92;;;-0.20;99.90;;;;;;5065708;28;20052;-71
2022/01/08 07:46:48;;;;;;;42.08;24.27;;;-0.10;99.90;;;;;;5066769;28;20052;-71
2022/01/08 07:49:14;;;;;;;49.60;24.45;;;-0.10;99.90;;;;;;5069952;28;20048;-71
2022/01/08 07:51:39;;;;;;;55.25;24.25;;;-0.10;99.90;;;;;;5067070;28;20041;-72
2022/01/08 07:54:05;;;;;;;41.70;22.67;;;-0.10;99.90;;;;;;5069320;28;20049;-71
2022/01/08 07:56:30;;;;;;;42.03;22.50;;;-0.10;99.90;;;;;;5066308;28;20093;-71
2022/01/08 07:58:56;;;;;;;41.17;24.05;;;-0.10;99.90;;;;;;5084530;28;20064;-71
2022/01/08 08:01:22;;;;;;;45.95;23.60;;;0.00;99.90;;;;;;5055668;28;20053;-71
2022/01/08 08:03:48;;;;;;;45.30;24.48;;;0.00;99.90;;;;;;5068758;28;20098;-71
2022/01/08 08:06:14;;;;;;;39.03;23.25;;;0.00;99.90;;;;;;5067030;28;20052;-72
2022/01/08 08:08:39;;;;;;;41.42;22.88;;;0.00;99.90;;;;;;5068432;28;20730;-71
2022/01/08 08:11:05;;;;;;;38.40;21.27;;;0.00;99.90;;;;;;5084344;28;20083;-71
2022/01/08 08:13:31;;;;;;;39.55;21.67;;;0.00;99.90;;;;;;5069109;28;20049;-71
2022/01/08 08:15:56;;;;;;;34.28;21.55;;;0.00;99.90;;;;;;5066702;28;20035;-71
2022/01/08 08:18:22;;;;;;;35.25;20.80;;;0.10;99.90;;;;;;5059174;28;20044;-71
2022/01/08 08:20:48;;;;;;;33.80;20.70;;;0.10;99.90;;;;;;5070931;28;20505;-69
2022/01/08 08:23:13;;;;;;;35.08;20.17;;;0.10;99.90;;;;;;5075209;28;20040;-69
2022/01/08 08:25:39;;;;;;;34.28;18.70;;;0.10;99.90;;;;;;5066227;28;20456;-69
2022/01/08 08:28:06;;;;;;;42.08;19.58;;;0.10;99.90;;;;;;5067546;28;20087;-69
2022/01/08 08:30:33;;;;;;;41.50;19.00;;;0.10;99.90;;;;;;5063182;28;20051;-69
2022/01/08 08:33:00;;;;;;;31.90;19.58;;;0.20;99.90;;;;;;5057795;28;20079;-70
2022/01/08 08:35:26;;;;;;;44.78;18.92;;;0.20;99.90;;;;;;5062435;28;20127;-69
2022/01/08 08:37:51;;;;;;;34.28;17.25;;;0.30;99.90;;;;;;5066784;28;20467;-69
2022/01/08 08:40:17;;;;;;;33.45;18.08;;;0.30;99.90;;;;;;5067280;28;20055;-69
2022/01/08 08:42:44;;;;;;;34.15;16.83;;;0.40;99.90;;;;;;5063127;28;20041;-69
2022/01/08 08:45:10;;;;;;;41.88;18.40;;;0.40;99.90;;;;;;5063923;28;20114;-69
2022/01/08 08:47:38;;;;;;;32.63;16.30;;;0.40;99.90;;;;;;5065785;28;20041;-70
2022/01/08 08:50:06;;;;;;;36.42;19.05;;;0.50;99.90;;;;;;5065591;28;20044;-69
2022/01/08 08:52:32;;;;;;;33.08;17.58;;;0.60;99.90;;;;;;5067500;28;20056;-70
2022/01/08 08:54:58;;;;;;;31.67;17.05;;;0.70;99.90;;;;;;5067466;28;20058;-69
2022/01/08 08:57:23;;;;;;;31.88;18.13;;;0.70;99.90;;;;;;5048397;28;20120;-69
2022/01/08 08:59:49;;;;;;;37.28;18.48;;;0.80;99.90;;;;;;5067291;28;20053;-69
2022/01/08 09:02:15;;;;;;;36.78;17.77;;;0.90;99.90;;;;;;5061404;28;20422;-69
2022/01/08 09:04:41;;;;;;;38.45;18.80;;;0.90;99.90;;;;;;5061381;28;20056;-69
2022/01/08 09:07:07;;;;;;;29.65;17.13;;;0.90;99.90;;;;;;5067405;28;20050;-69
2022/01/08 09:09:34;;;;;;;34.90;16.63;;;0.90;99.90;;;;;;5066564;28;20187;-69
2022/01/08 09:11:59;;;;;;;39.00;18.60;;;0.90;99.90;;;;;;5067672;28;20095;-69
2022/01/08 09:14:26;;;;;;;33.45;17.67;;;0.90;99.90;;;;;;5067287;28;20040;-69
2022/01/08 09:16:56;;;;;;;47.58;18.33;;;0.90;99.90;;;;;;5065239;28;20055;-69
2022/01/08 09:19:23;;;;;;;30.67;18.08;;;1.00;99.90;;;;;;5066339;28;20044;-69
2022/01/08 09:21:50;;;;;;;29.85;18.80;;;1.00;99.90;;;;;;5065936;28;20052;-69
2022/01/08 09:24:20;;;;;;;38.00;19.60;;;1.00;99.90;;;;;;5061597;28;20845;-69
2022/01/08 09:26:47;;;;;;;33.17;17.55;;;1.00;99.90;;;;;;5063143;28;20045;-69
2022/01/08 09:29:13;;;;;;;34.22;18.85;;;1.10;99.90;;;;;;5061294;28;20055;-69
2022/01/08 09:31:39;;;;;;;37.50;17.98;;;1.10;99.90;;;;;;5061596;28;20063;-69
2022/01/08 09:34:06;;;;;;;30.90;19.10;;;1.10;99.90;;;;;;5065593;28;20044;-69
2022/01/08 09:36:32;;;;;;;34.42;20.02;;;1.10;99.90;;;;;;5061585;28;20079;-68
2022/01/08 09:38:58;;;;;;;44.20;20.63;;;1.10;99.90;;;;;;5063345;28;20498;-68
2022/01/08 09:41:24;;;;;;;44.75;20.65;;;1.20;99.90;;;;;;5056095;28;20090;-68
2022/01/08 09:43:50;;;;;;;38.30;20.55;;;1.30;99.90;;;;;;5070288;28;20049;-68
2022/01/08 09:46:16;;;;;;;33.70;20.55;;;1.50;99.90;;;;;;5048380;28;20055;-68
2022/01/08 09:48:42;;;;;;;42.70;20.80;;;1.70;99.90;;;;;;5054975;28;20061;-68
2022/01/08 09:51:08;;;;;;;34.10;19.25;;;1.80;99.90;;;;;;5060397;28;20486;-68
2022/01/08 09:53:36;;;;;;;31.75;19.17;;;1.80;99.90;;;;;;5068347;28;20047;-68
2022/01/08 09:56:03;;;;;;;33.78;19.38;;;1.90;99.90;;;;;;5067224;28;20044;-68
2022/01/08 09:58:28;;;;;;;50.17;19.25;;;1.90;99.90;;;;;;5058328;28;20048;-69
2022/01/08 10:00:54;;;;;;;33.50;20.48;;;1.90;99.90;;;;;;5070994;28;20048;-69
2022/01/08 10:03:22;;;;;;;34.08;22.55;;;1.90;99.90;;;;;;5069861;28;20072;-69
2022/01/08 10:05:50;;;;;;;33.50;17.38;;;1.90;99.90;;;;;;5051248;28;20052;-69
2022/01/08 10:08:23;;;;;;;608.80;349.55;;;1.90;99.90;;;;;;5061207;28;20123;-69
2022/01/08 10:11:07;;;;;;;75.03;70.60;;;1.90;99.90;;;;;;5065611;28;20055;-69
2022/01/08 10:13:36;;;;;;;1999.90;999.90;;;2.00;99.90;;;;;;5068364;28;20051;-69
2022/01/08 10:18:49;;;;;;;186.55;170.35;;;2.10;99.90;;;;;;5069230;28;20101;-69
2022/01/08 10:21:19;;;;;;;1999.90;999.90;;;2.10;99.90;;;;;;5068122;28;20103;-69
2022/01/08 10:23:48;;;;;;;1999.90;999.90;;;2.20;99.90;;;;;;5068188;28;20443;-69
2022/01/08 10:26:16;;;;;;;1999.90;999.90;;;2.20;99.90;;;;;;5075104;28;20110;-69
2022/01/08 10:28:53;;;;;;;1999.90;999.90;;;2.30;99.90;;;;;;5068158;28;20060;-69
2022/01/08 10:31:29;;;;;;;1999.90;999.90;;;2.30;99.90;;;;;;5067683;28;20052;-69
2022/01/08 10:34:04;;;;;;;59.10;54.08;;;2.30;99.90;;;;;;5067889;28;20055;-69
2022/01/08 10:36:33;;;;;;;1999.90;999.90;;;2.30;99.90;;;;;;5072491;28;20109;-69
2022/01/08 10:39:03;;;;;;;33.85;22.63;;;2.30;99.90;;;;;;5072371;28;20457;-69
2022/01/08 10:41:29;;;;;;;1999.90;999.90;;;2.40;99.90;;;;;;5069965;28;20273;-69
2022/01/08 10:44:11;;;;;;;1999.90;999.90;;;2.40;99.90;;;;;;5068339;28;20106;-69
2022/01/08 10:46:38;;;;;;;1999.90;999.90;;;2.40;99.90;;;;;;5068365;28;20166;-69
2022/01/08 10:49:04;;;;;;;1999.90;999.90;;;2.40;99.90;;;;;;5068940;28;20444;-69
2022/01/08 10:51:38;;;;;;;1999.90;999.90;;;2.50;99.90;;;;;;5065233;28;20055;-69
2022/01/08 10:54:08;;;;;;;1999.90;999.90;;;2.50;99.90;;;;;;5064459;28;20091;-69
2022/01/08 10:56:39;;;;;;;1999.90;999.90;;;2.60;99.90;;;;;;5066763;28;20077;-69
2022/01/08 10:59:18;;;;;;;1999.90;999.90;;;2.70;99.90;;;;;;5062257;28;20117;-69
2022/01/08 11:01:53;;;;;;;1999.90;999.90;;;2.70;99.90;;;;;;5062738;28;20052;-69
2022/01/08 11:04:41;;;;;;;1999.90;999.90;;;2.80;99.90;;;;;;5061818;28;20048;-69
2022/01/08 11:07:23;;;;;;;1999.90;999.90;;;2.80;99.90;;;;;;5066054;28;20060;-70
2022/01/08 11:09:51;;;;;;;1999.90;999.90;;;2.90;99.90;;;;;;5068250;28;20118;-70
2022/01/08 11:12:26;;;;;;;1999.90;999.90;;;2.80;99.90;;;;;;5068634;28;20059;-71
2022/01/08 11:17:29;;;;;;;1999.90;999.90;;;2.90;99.90;;;;;;5067952;28;20136;-71
2022/01/08 11:20:11;;;;;;;1999.90;999.90;;;2.90;99.90;;;;;;5065924;28;20044;-71
2022/01/08 11:22:43;;;;;;;1999.90;999.90;;;2.90;99.90;;;;;;5068592;28;20040;-71
2022/01/08 11:25:17;;;;;;;1999.90;999.90;;;2.90;99.90;;;;;;5063592;28;20049;-71
2022/01/08 11:27:45;;;;;;;1999.90;999.90;;;2.80;99.90;;;;;;5067253;28;20062;-71
2022/01/08 11:30:19;;;;;;;1999.90;999.90;;;2.80;99.90;;;;;;5069506;28;20102;-72
2022/01/08 11:32:46;;;;;;;1999.90;999.90;;;2.80;99.90;;;;;;5068234;28;20048;-71
2022/01/08 11:35:13;;;;;;;1999.90;999.90;;;2.80;99.90;;;;;;5069110;28;20048;-71
2022/01/08 11:37:46;;;;;;;1999.90;999.90;;;2.90;99.90;;;;;;5062891;28;20048;-71
2022/01/08 11:40:14;;;;;;;1999.90;999.90;;;2.90;99.90;;;;;;5066345;28;20048;-71
2022/01/08 11:42:40;;;;;;;1999.90;999.90;;;3.00;99.90;;;;;;5066951;28;20044;-71
2022/01/08 11:45:09;;;;;;;1999.90;999.90;;;3.00;99.90;;;;;;5065977;28;20141;-71
2022/01/08 11:47:35;;;;;;;1999.90;999.90;;;3.10;99.90;;;;;;5066506;28;20098;-71
2022/01/08 11:50:04;;;;;;;1999.90;999.90;;;3.10;99.90;;;;;;5069502;28;20060;-71
2022/01/08 11:52:30;;;;;;;;;;;3.10;99.90;;;;;;5066795;28;20044;-71
2022/01/08 11:54:56;;;;;;;1999.90;999.90;;;3.10;99.90;;;;;;5069097;28;19931;-71
2022/01/08 11:57:25;;;;;;;1999.90;999.90;;;3.10;99.90;;;;;;5068314;28;20379;-71
2022/01/08 11:59:57;;;;;;;1999.90;999.90;;;3.20;99.90;;;;;;5067358;28;20090;-71
2022/01/08 12:02:41;;;;;;;1999.90;999.90;;;3.20;99.90;;;;;;5067756;28;20060;-71
2022/01/08 12:05:11;;;;;;;1999.90;999.90;;;3.30;99.90;;;;;;5064219;28;20088;-71
2022/01/08 12:07:40;;;;;;;1999.90;999.90;;;3.30;99.90;;;;;;5067771;28;20068;-71
2022/01/08 12:10:24;;;;;;;345.10;325.30;;;3.30;99.90;;;;;;5066526;28;20045;-71
2022/01/08 12:12:59;;;;;;;413.23;389.58;;;3.30;99.90;;;;;;5065113;28;20063;-71
2022/01/08 12:15:40;;;;;;;397.58;377.98;;;3.40;99.90;;;;;;5067206;28;20519;-71
2022/01/08 12:18:09;;;;;;;61.65;59.17;;;3.40;99.90;;;;;;5059297;28;20045;-71
2022/01/08 12:20:41;;;;;;;57.95;55.60;;;3.40;99.90;;;;;;5061937;28;20130;-71
2022/01/08 12:23:30;;;;;;;41.90;40.13;;;3.50;99.90;;;;;;5060444;28;20040;-71
2022/01/08 12:26:05;;;;;;;59.47;57.08;;;3.50;99.90;;;;;;5065978;28;20044;-71
2022/01/08 12:28:47;;;;;;;119.45;113.88;;;3.50;99.90;;;;;;5066305;28;20052;-71
2022/01/08 12:31:42;;;;;;;1999.90;999.90;;;3.50;99.90;;;;;;5066619;28;20063;-72
2022/01/08 12:34:21;;;;;;;59.47;38.75;;;3.50;99.90;;;;;;5067158;28;20039;-71
2022/01/08 12:36:54;;;;;;;59.58;40.20;;;3.50;99.90;;;;;;5061666;28;20059;-71
2022/01/08 12:39:49;;;;;;;73.55;53.20;;;3.50;99.90;;;;;;5067102;28;20059;-70
2022/01/08 12:42:24;;;;;;;63.22;44.15;;;3.60;99.90;;;;;;5064150;28;20060;-71
2022/01/08 12:45:30;;;;;;;65.07;42.05;;;3.60;99.90;;;;;;5063721;28;20052;-71
2022/01/08 12:48:09;;;;;;;71.05;46.83;;;3.50;99.90;;;;;;5053587;28;20398;-71
2022/01/08 12:50:43;;;;;;;57.40;40.63;;;3.60;99.90;;;;;;5078468;28;20058;-71
2022/01/08 12:53:11;;;;;;;56.00;38.35;;;3.60;99.90;;;;;;5071047;28;20075;-71
2022/01/08 12:55:43;;;;;;;58.05;39.35;;;3.60;99.90;;;;;;5070366;28;20135;-71
2022/01/08 12:58:14;;;;;;;64.95;40.33;;;3.50;99.90;;;;;;5066768;28;20076;-71
2022/01/08 13:00:59;;;;;;;70.80;44.80;;;3.50;99.90;;;;;;5062440;28;20063;-71